sensor_id;sensor_type;location;lat;lon;timestamp;P1;durP1;ratioP1;P2;durP2;ratioP2
18391;SDS011;9322;50.932;5.318;2022-08-05T00:00:14;18.70;;;6.22;;
18391;SDS011;9322;50.932;5.318;2022-08-05T00:02:40;11.90;;;6.25;;
18391;SDS011;9322;50.932;5.318;2022-08-05T00:05:06;15.65;;;6.40;;
18391;SDS011;9322;50.932;5.318;2022-08-05T00:07:32;15.90;;;6.10;;
18391;SDS011;9322;50.932;5.318;2022-08-05T00:09:58;11.05;;;6.50;;
18391;SDS011;9322;50.932;5.318;2022-08-05T00:12:23;13.55;;;6.53;;
18391;SDS011;9322;50.932;5.318;2022-08-05T00:14:49;14.27;;;5.93;;
18391;SDS011;9322;50.932;5.318;2022-08-05T00:17:15;10.85;;;6.25;;
18391;SDS011;9322;50.932;5.318;2022-08-05T00:19:40;9.13;;;6.28;;
18391;SDS011;9322;50.932;5.318;2022-08-05T00:22:06;12.70;;;6.60;;
18391;SDS011;9322;50.932;5.318;2022-08-05T00:24:32;13.90;;;6.72;;
18391;SDS011;9322;50.932;5.318;2022-08-05T00:26:58;11.43;;;6.72;;
18391;SDS011;9322;50.932;5.318;2022-08-05T00:29:24;16.27;;;6.70;;
18391;SDS011;9322;50.932;5.318;2022-08-05T00:31:50;12.60;;;6.88;;
18391;SDS011;9322;50.932;5.318;2022-08-05T00:34:16;14.07;;;6.75;;
18391;SDS011;9322;50.932;5.318;2022-08-05T00:36:41;15.45;;;7.15;;
18391;SDS011;9322;50.932;5.318;2022-08-05T00:39:07;14.30;;;7.35;;
18391;SDS011;9322;50.932;5.318;2022-08-05T00:41:34;11.95;;;6.82;;
18391;SDS011;9322;50.932;5.318;2022-08-05T00:44:00;17.00;;;7.38;;
18391;SDS011;9322;50.932;5.318;2022-08-05T00:46:26;12.85;;;6.40;;
18391;SDS011;9322;50.932;5.318;2022-08-05T00:48:51;10.23;;;6.65;;
18391;SDS011;9322;50.932;5.318;2022-08-05T00:51:18;10.32;;;6.93;;
18391;SDS011;9322;50.932;5.318;2022-08-05T00:53:44;14.65;;;6.88;;
18391;SDS011;9322;50.932;5.318;2022-08-05T00:56:10;13.23;;;7.00;;
18391;SDS011;9322;50.932;5.318;2022-08-05T00:58:36;14.02;;;6.93;;
18391;SDS011;9322;50.932;5.318;2022-08-05T01:01:02;21.20;;;7.00;;
18391;SDS011;9322;50.932;5.318;2022-08-05T01:03:28;14.75;;;6.93;;
18391;SDS011;9322;50.932;5.318;2022-08-05T01:05:54;14.50;;;6.93;;
18391;SDS011;9322;50.932;5.318;2022-08-05T01:08:20;15.07;;;7.28;;
18391;SDS011;9322;50.932;5.318;2022-08-05T01:16:40;15.73;;;7.78;;
18391;SDS011;9322;50.932;5.318;2022-08-05T01:19:22;18.10;;;8.20;;
18391;SDS011;9322;50.932;5.318;2022-08-05T01:22:10;21.83;;;9.57;;
18391;SDS011;9322;50.932;5.318;2022-08-05T01:30:30;14.88;;;7.82;;
18391;SDS011;9322;50.932;5.318;2022-08-05T01:33:01;20.65;;;8.27;;
18391;SDS011;9322;50.932;5.318;2022-08-05T01:35:31;14.95;;;7.97;;
18391;SDS011;9322;50.932;5.318;2022-08-05T01:38:00;16.45;;;8.32;;
18391;SDS011;9322;50.932;5.318;2022-08-05T01:40:28;21.23;;;8.25;;
18391;SDS011;9322;50.932;5.318;2022-08-05T01:42:59;15.15;;;7.95;;
18391;SDS011;9322;50.932;5.318;2022-08-05T01:45:26;20.25;;;9.13;;
18391;SDS011;9322;50.932;5.318;2022-08-05T01:47:55;18.90;;;8.75;;
18391;SDS011;9322;50.932;5.318;2022-08-05T01:50:24;25.00;;;9.40;;
18391;SDS011;9322;50.932;5.318;2022-08-05T01:52:52;16.60;;;9.20;;
18391;SDS011;9322;50.932;5.318;2022-08-05T01:55:21;16.13;;;8.57;;
18391;SDS011;9322;50.932;5.318;2022-08-05T01:57:49;18.10;;;8.98;;
18391;SDS011;9322;50.932;5.318;2022-08-05T02:00:17;17.55;;;9.43;;
18391;SDS011;9322;50.932;5.318;2022-08-05T02:02:56;18.88;;;9.32;;
18391;SDS011;9322;50.932;5.318;2022-08-05T02:05:29;19.13;;;10.00;;
18391;SDS011;9322;50.932;5.318;2022-08-05T02:07:57;21.88;;;9.10;;
18391;SDS011;9322;50.932;5.318;2022-08-05T02:10:24;23.30;;;10.15;;
18391;SDS011;9322;50.932;5.318;2022-08-05T02:12:54;23.05;;;9.85;;
18391;SDS011;9322;50.932;5.318;2022-08-05T02:18:05;22.38;;;10.30;;
18391;SDS011;9322;50.932;5.318;2022-08-05T02:20:46;18.00;;;10.05;;
18391;SDS011;9322;50.932;5.318;2022-08-05T02:23:17;18.20;;;10.25;;
18391;SDS011;9322;50.932;5.318;2022-08-05T02:25:46;17.25;;;10.45;;
18391;SDS011;9322;50.932;5.318;2022-08-05T02:28:14;23.23;;;9.68;;
18391;SDS011;9322;50.932;5.318;2022-08-05T02:30:44;17.63;;;9.95;;
18391;SDS011;9322;50.932;5.318;2022-08-05T02:33:16;19.48;;;9.60;;
18391;SDS011;9322;50.932;5.318;2022-08-05T02:35:44;18.85;;;10.77;;
18391;SDS011;9322;50.932;5.318;2022-08-05T02:38:11;26.13;;;10.52;;
18391;SDS011;9322;50.932;5.318;2022-08-05T02:40:40;26.05;;;10.45;;
18391;SDS011;9322;50.932;5.318;2022-08-05T02:43:07;20.20;;;10.18;;
18391;SDS011;9322;50.932;5.318;2022-08-05T02:45:35;22.75;;;10.95;;
18391;SDS011;9322;50.932;5.318;2022-08-05T02:48:02;22.60;;;10.60;;
18391;SDS011;9322;50.932;5.318;2022-08-05T02:50:29;17.50;;;9.80;;
18391;SDS011;9322;50.932;5.318;2022-08-05T02:52:55;18.15;;;10.50;;
18391;SDS011;9322;50.932;5.318;2022-08-05T02:55:22;20.50;;;10.38;;
18391;SDS011;9322;50.932;5.318;2022-08-05T02:57:48;18.33;;;10.50;;
18391;SDS011;9322;50.932;5.318;2022-08-05T03:00:15;29.42;;;11.27;;
18391;SDS011;9322;50.932;5.318;2022-08-05T03:02:41;22.80;;;10.80;;
18391;SDS011;9322;50.932;5.318;2022-08-05T03:05:10;20.52;;;11.20;;
18391;SDS011;9322;50.932;5.318;2022-08-05T03:07:37;19.42;;;10.85;;
18391;SDS011;9322;50.932;5.318;2022-08-05T03:10:04;18.48;;;10.43;;
18391;SDS011;9322;50.932;5.318;2022-08-05T03:12:31;21.15;;;10.90;;
18391;SDS011;9322;50.932;5.318;2022-08-05T03:14:58;24.40;;;11.32;;
18391;SDS011;9322;50.932;5.318;2022-08-05T03:17:24;17.63;;;10.23;;
18391;SDS011;9322;50.932;5.318;2022-08-05T03:19:51;23.23;;;10.05;;
18391;SDS011;9322;50.932;5.318;2022-08-05T03:22:16;22.52;;;10.73;;
18391;SDS011;9322;50.932;5.318;2022-08-05T03:24:43;23.48;;;10.68;;
18391;SDS011;9322;50.932;5.318;2022-08-05T03:27:10;21.80;;;11.38;;
18391;SDS011;9322;50.932;5.318;2022-08-05T03:29:37;21.48;;;10.82;;
18391;SDS011;9322;50.932;5.318;2022-08-05T03:32:04;17.15;;;10.68;;
18391;SDS011;9322;50.932;5.318;2022-08-05T03:34:34;20.52;;;10.40;;
18391;SDS011;9322;50.932;5.318;2022-08-05T03:37:02;20.67;;;10.45;;
18391;SDS011;9322;50.932;5.318;2022-08-05T03:39:28;19.25;;;10.75;;
18391;SDS011;9322;50.932;5.318;2022-08-05T03:41:54;19.80;;;10.57;;
18391;SDS011;9322;50.932;5.318;2022-08-05T03:44:20;20.80;;;10.57;;
18391;SDS011;9322;50.932;5.318;2022-08-05T03:46:46;21.00;;;10.93;;
18391;SDS011;9322;50.932;5.318;2022-08-05T03:49:12;23.45;;;11.90;;
18391;SDS011;9322;50.932;5.318;2022-08-05T03:51:39;20.63;;;10.70;;
18391;SDS011;9322;50.932;5.318;2022-08-05T03:56:55;20.73;;;11.82;;
18391;SDS011;9322;50.932;5.318;2022-08-05T03:59:24;19.85;;;11.45;;
18391;SDS011;9322;50.932;5.318;2022-08-05T04:01:59;29.13;;;11.00;;
18391;SDS011;9322;50.932;5.318;2022-08-05T04:04:26;24.42;;;11.77;;
18391;SDS011;9322;50.932;5.318;2022-08-05T04:06:54;19.48;;;11.10;;
18391;SDS011;9322;50.932;5.318;2022-08-05T04:09:22;23.50;;;11.55;;
18391;SDS011;9322;50.932;5.318;2022-08-05T04:11:48;20.40;;;11.88;;
18391;SDS011;9322;50.932;5.318;2022-08-05T04:14:14;28.15;;;12.23;;
18391;SDS011;9322;50.932;5.318;2022-08-05T04:16:41;25.60;;;12.38;;
18391;SDS011;9322;50.932;5.318;2022-08-05T04:19:10;24.02;;;12.60;;
18391;SDS011;9322;50.932;5.318;2022-08-05T04:21:37;23.70;;;12.45;;
18391;SDS011;9322;50.932;5.318;2022-08-05T04:24:03;18.98;;;12.18;;
18391;SDS011;9322;50.932;5.318;2022-08-05T04:26:29;23.63;;;11.85;;
18391;SDS011;9322;50.932;5.318;2022-08-05T04:28:55;18.90;;;12.02;;
18391;SDS011;9322;50.932;5.318;2022-08-05T04:31:21;21.85;;;11.75;;
18391;SDS011;9322;50.932;5.318;2022-08-05T04:33:46;22.40;;;11.07;;
18391;SDS011;9322;50.932;5.318;2022-08-05T04:36:13;21.00;;;11.25;;
18391;SDS011;9322;50.932;5.318;2022-08-05T04:38:40;22.83;;;11.93;;
18391;SDS011;9322;50.932;5.318;2022-08-05T04:41:07;21.83;;;12.60;;
18391;SDS011;9322;50.932;5.318;2022-08-05T04:43:33;24.05;;;11.65;;
18391;SDS011;9322;50.932;5.318;2022-08-05T04:45:58;23.05;;;11.80;;
18391;SDS011;9322;50.932;5.318;2022-08-05T04:48:24;21.90;;;11.88;;
18391;SDS011;9322;50.932;5.318;2022-08-05T04:50:50;20.77;;;11.93;;
18391;SDS011;9322;50.932;5.318;2022-08-05T04:53:17;29.77;;;11.88;;
18391;SDS011;9322;50.932;5.318;2022-08-05T04:55:43;19.73;;;11.95;;
18391;SDS011;9322;50.932;5.318;2022-08-05T04:58:11;27.70;;;12.50;;
18391;SDS011;9322;50.932;5.318;2022-08-05T05:00:38;25.40;;;12.35;;
18391;SDS011;9322;50.932;5.318;2022-08-05T05:03:05;21.98;;;12.65;;
18391;SDS011;9322;50.932;5.318;2022-08-05T05:05:31;28.30;;;13.15;;
18391;SDS011;9322;50.932;5.318;2022-08-05T05:10:32;20.80;;;12.75;;
18391;SDS011;9322;50.932;5.318;2022-08-05T05:13:08;26.90;;;12.35;;
18391;SDS011;9322;50.932;5.318;2022-08-05T05:15:35;21.83;;;12.40;;
18391;SDS011;9322;50.932;5.318;2022-08-05T05:18:01;25.60;;;12.90;;
18391;SDS011;9322;50.932;5.318;2022-08-05T05:20:27;25.50;;;12.20;;
18391;SDS011;9322;50.932;5.318;2022-08-05T05:22:52;21.13;;;12.60;;
18391;SDS011;9322;50.932;5.318;2022-08-05T05:25:18;21.40;;;12.48;;
18391;SDS011;9322;50.932;5.318;2022-08-05T05:27:44;28.90;;;11.93;;
18391;SDS011;9322;50.932;5.318;2022-08-05T05:30:09;21.40;;;12.43;;
18391;SDS011;9322;50.932;5.318;2022-08-05T05:32:36;21.90;;;11.85;;
18391;SDS011;9322;50.932;5.318;2022-08-05T05:35:02;21.98;;;12.50;;
18391;SDS011;9322;50.932;5.318;2022-08-05T05:37:27;25.70;;;12.75;;
18391;SDS011;9322;50.932;5.318;2022-08-05T05:39:53;26.55;;;12.52;;
18391;SDS011;9322;50.932;5.318;2022-08-05T05:42:19;24.58;;;12.32;;
18391;SDS011;9322;50.932;5.318;2022-08-05T05:44:44;19.83;;;11.60;;
18391;SDS011;9322;50.932;5.318;2022-08-05T05:47:10;22.63;;;12.27;;
18391;SDS011;9322;50.932;5.318;2022-08-05T05:49:36;17.55;;;12.02;;
18391;SDS011;9322;50.932;5.318;2022-08-05T05:52:01;20.75;;;12.05;;
18391;SDS011;9322;50.932;5.318;2022-08-05T05:54:27;22.50;;;11.95;;
18391;SDS011;9322;50.932;5.318;2022-08-05T05:56:53;17.27;;;11.50;;
18391;SDS011;9322;50.932;5.318;2022-08-05T05:59:18;19.00;;;10.55;;
18391;SDS011;9322;50.932;5.318;2022-08-05T06:01:44;18.48;;;10.40;;
18391;SDS011;9322;50.932;5.318;2022-08-05T06:04:10;16.05;;;9.75;;
18391;SDS011;9322;50.932;5.318;2022-08-05T06:06:38;15.07;;;10.00;;
18391;SDS011;9322;50.932;5.318;2022-08-05T06:09:05;17.55;;;9.88;;
18391;SDS011;9322;50.932;5.318;2022-08-05T06:11:31;18.40;;;9.63;;
18391;SDS011;9322;50.932;5.318;2022-08-05T06:13:57;15.60;;;9.88;;
18391;SDS011;9322;50.932;5.318;2022-08-05T06:16:24;14.73;;;9.93;;
18391;SDS011;9322;50.932;5.318;2022-08-05T06:18:49;17.42;;;10.38;;
18391;SDS011;9322;50.932;5.318;2022-08-05T06:21:15;19.33;;;10.15;;
18391;SDS011;9322;50.932;5.318;2022-08-05T06:23:41;18.25;;;10.05;;
18391;SDS011;9322;50.932;5.318;2022-08-05T06:26:07;17.50;;;10.15;;
18391;SDS011;9322;50.932;5.318;2022-08-05T06:28:33;20.90;;;11.52;;
18391;SDS011;9322;50.932;5.318;2022-08-05T06:30:59;22.95;;;11.40;;
18391;SDS011;9322;50.932;5.318;2022-08-05T06:33:24;26.23;;;11.27;;
18391;SDS011;9322;50.932;5.318;2022-08-05T06:35:50;23.70;;;11.23;;
18391;SDS011;9322;50.932;5.318;2022-08-05T06:38:16;18.33;;;11.65;;
18391;SDS011;9322;50.932;5.318;2022-08-05T06:40:41;19.33;;;10.73;;
18391;SDS011;9322;50.932;5.318;2022-08-05T06:43:07;16.35;;;9.82;;
18391;SDS011;9322;50.932;5.318;2022-08-05T06:45:34;18.98;;;10.48;;
18391;SDS011;9322;50.932;5.318;2022-08-05T06:47:59;16.52;;;9.65;;
18391;SDS011;9322;50.932;5.318;2022-08-05T06:50:25;15.73;;;9.52;;
18391;SDS011;9322;50.932;5.318;2022-08-05T06:52:51;21.25;;;9.75;;
18391;SDS011;9322;50.932;5.318;2022-08-05T06:55:17;17.75;;;9.80;;
18391;SDS011;9322;50.932;5.318;2022-08-05T06:57:43;16.67;;;9.70;;
18391;SDS011;9322;50.932;5.318;2022-08-05T07:00:09;17.88;;;9.80;;
18391;SDS011;9322;50.932;5.318;2022-08-05T07:02:44;17.05;;;9.57;;
18391;SDS011;9322;50.932;5.318;2022-08-05T07:05:11;19.30;;;8.77;;
18391;SDS011;9322;50.932;5.318;2022-08-05T07:07:38;19.27;;;8.75;;
18391;SDS011;9322;50.932;5.318;2022-08-05T07:10:07;15.35;;;8.30;;
18391;SDS011;9322;50.932;5.318;2022-08-05T07:12:34;14.68;;;8.13;;
18391;SDS011;9322;50.932;5.318;2022-08-05T07:15:18;14.85;;;6.90;;
18391;SDS011;9322;50.932;5.318;2022-08-05T07:18:02;15.23;;;7.10;;
18391;SDS011;9322;50.932;5.318;2022-08-05T07:20:27;11.18;;;7.38;;
18391;SDS011;9322;50.932;5.318;2022-08-05T07:22:53;15.82;;;8.40;;
18391;SDS011;9322;50.932;5.318;2022-08-05T07:25:19;13.05;;;6.90;;
18391;SDS011;9322;50.932;5.318;2022-08-05T07:27:44;11.50;;;6.47;;
18391;SDS011;9322;50.932;5.318;2022-08-05T07:30:10;8.85;;;5.38;;
18391;SDS011;9322;50.932;5.318;2022-08-05T07:32:36;9.50;;;5.60;;
18391;SDS011;9322;50.932;5.318;2022-08-05T07:35:11;8.65;;;4.80;;
18391;SDS011;9322;50.932;5.318;2022-08-05T07:37:38;10.27;;;4.95;;
18391;SDS011;9322;50.932;5.318;2022-08-05T07:40:04;10.05;;;4.72;;
18391;SDS011;9322;50.932;5.318;2022-08-05T07:42:31;11.65;;;5.18;;
18391;SDS011;9322;50.932;5.318;2022-08-05T07:44:57;9.98;;;4.43;;
18391;SDS011;9322;50.932;5.318;2022-08-05T07:47:23;10.00;;;4.50;;
18391;SDS011;9322;50.932;5.318;2022-08-05T07:49:48;10.73;;;5.13;;
18391;SDS011;9322;50.932;5.318;2022-08-05T07:52:18;16.05;;;5.82;;
18391;SDS011;9322;50.932;5.318;2022-08-05T07:54:44;12.05;;;6.03;;
18391;SDS011;9322;50.932;5.318;2022-08-05T07:57:09;14.73;;;5.80;;
18391;SDS011;9322;50.932;5.318;2022-08-05T07:59:35;13.38;;;5.38;;
18391;SDS011;9322;50.932;5.318;2022-08-05T08:02:01;11.80;;;5.63;;
18391;SDS011;9322;50.932;5.318;2022-08-05T08:04:27;367.00;;;24.55;;
18391;SDS011;9322;50.932;5.318;2022-08-05T08:06:53;13.13;;;5.65;;
18391;SDS011;9322;50.932;5.318;2022-08-05T08:09:19;10.63;;;6.20;;
18391;SDS011;9322;50.932;5.318;2022-08-05T08:11:45;13.48;;;6.07;;
18391;SDS011;9322;50.932;5.318;2022-08-05T08:14:11;11.07;;;5.88;;
18391;SDS011;9322;50.932;5.318;2022-08-05T08:16:36;12.18;;;6.28;;
18391;SDS011;9322;50.932;5.318;2022-08-05T08:19:02;12.02;;;6.30;;
18391;SDS011;9322;50.932;5.318;2022-08-05T08:21:28;12.30;;;5.90;;
18391;SDS011;9322;50.932;5.318;2022-08-05T08:23:54;44.45;;;7.75;;
18391;SDS011;9322;50.932;5.318;2022-08-05T08:26:19;22.48;;;6.22;;
18391;SDS011;9322;50.932;5.318;2022-08-05T08:28:45;15.18;;;5.82;;
18391;SDS011;9322;50.932;5.318;2022-08-05T08:31:11;14.68;;;5.57;;
18391;SDS011;9322;50.932;5.318;2022-08-05T08:33:37;16.25;;;5.05;;
18391;SDS011;9322;50.932;5.318;2022-08-05T08:36:03;11.45;;;4.78;;
18391;SDS011;9322;50.932;5.318;2022-08-05T08:38:29;11.65;;;4.45;;
18391;SDS011;9322;50.932;5.318;2022-08-05T08:40:54;9.57;;;4.97;;
18391;SDS011;9322;50.932;5.318;2022-08-05T08:43:21;7.75;;;4.65;;
18391;SDS011;9322;50.932;5.318;2022-08-05T08:45:48;11.25;;;4.90;;
18391;SDS011;9322;50.932;5.318;2022-08-05T08:48:16;13.23;;;5.10;;
18391;SDS011;9322;50.932;5.318;2022-08-05T08:50:44;10.80;;;4.95;;
18391;SDS011;9322;50.932;5.318;2022-08-05T08:53:13;12.43;;;4.70;;
18391;SDS011;9322;50.932;5.318;2022-08-05T08:55:40;10.55;;;4.93;;
18391;SDS011;9322;50.932;5.318;2022-08-05T08:58:06;11.45;;;4.93;;
18391;SDS011;9322;50.932;5.318;2022-08-05T09:00:33;10.80;;;5.40;;
18391;SDS011;9322;50.932;5.318;2022-08-05T09:02:59;9.70;;;5.45;;
18391;SDS011;9322;50.932;5.318;2022-08-05T09:05:24;13.05;;;5.15;;
18391;SDS011;9322;50.932;5.318;2022-08-05T09:07:50;12.18;;;5.40;;
18391;SDS011;9322;50.932;5.318;2022-08-05T09:10:16;10.55;;;4.82;;
18391;SDS011;9322;50.932;5.318;2022-08-05T09:12:43;15.40;;;5.93;;
18391;SDS011;9322;50.932;5.318;2022-08-05T09:15:08;12.00;;;5.38;;
18391;SDS011;9322;50.932;5.318;2022-08-05T09:17:34;10.18;;;5.40;;
18391;SDS011;9322;50.932;5.318;2022-08-05T09:20:00;11.05;;;6.00;;
18391;SDS011;9322;50.932;5.318;2022-08-05T09:22:28;12.02;;;6.45;;
18391;SDS011;9322;50.932;5.318;2022-08-05T09:24:57;12.85;;;6.38;;
18391;SDS011;9322;50.932;5.318;2022-08-05T09:27:31;11.57;;;6.10;;
18391;SDS011;9322;50.932;5.318;2022-08-05T09:29:59;22.92;;;7.97;;
18391;SDS011;9322;50.932;5.318;2022-08-05T09:32:34;10.95;;;6.07;;
18391;SDS011;9322;50.932;5.318;2022-08-05T09:35:08;11.55;;;6.05;;
18391;SDS011;9322;50.932;5.318;2022-08-05T09:37:36;12.43;;;6.30;;
18391;SDS011;9322;50.932;5.318;2022-08-05T09:40:01;14.02;;;6.55;;
18391;SDS011;9322;50.932;5.318;2022-08-05T09:42:36;10.32;;;6.63;;
18391;SDS011;9322;50.932;5.318;2022-08-05T09:45:07;14.88;;;7.40;;
18391;SDS011;9322;50.932;5.318;2022-08-05T09:47:33;9.43;;;6.22;;
18391;SDS011;9322;50.932;5.318;2022-08-05T09:50:04;11.70;;;6.40;;
18391;SDS011;9322;50.932;5.318;2022-08-05T09:52:34;14.35;;;5.75;;
18391;SDS011;9322;50.932;5.318;2022-08-05T09:55:01;13.23;;;6.20;;
18391;SDS011;9322;50.932;5.318;2022-08-05T10:00:09;9.95;;;5.75;;
18391;SDS011;9322;50.932;5.318;2022-08-05T10:02:40;11.02;;;5.00;;
18391;SDS011;9322;50.932;5.318;2022-08-05T10:10:21;9.82;;;4.68;;
18391;SDS011;9322;50.932;5.318;2022-08-05T10:12:49;8.77;;;4.25;;
18391;SDS011;9322;50.932;5.318;2022-08-05T10:15:18;10.55;;;4.55;;
18391;SDS011;9322;50.932;5.318;2022-08-05T10:20:42;8.85;;;3.67;;
18391;SDS011;9322;50.932;5.318;2022-08-05T10:23:13;9.95;;;3.97;;
18391;SDS011;9322;50.932;5.318;2022-08-05T10:25:44;5.53;;;1.95;;
18391;SDS011;9322;50.932;5.318;2022-08-05T10:28:09;7.93;;;2.50;;
18391;SDS011;9322;50.932;5.318;2022-08-05T10:30:36;4.28;;;2.58;;
18391;SDS011;9322;50.932;5.318;2022-08-05T10:33:03;7.57;;;2.70;;
18391;SDS011;9322;50.932;5.318;2022-08-05T10:35:32;40.42;;;6.07;;
18391;SDS011;9322;50.932;5.318;2022-08-05T10:38:00;4.88;;;2.60;;
18391;SDS011;9322;50.932;5.318;2022-08-05T10:40:29;7.97;;;2.92;;
18391;SDS011;9322;50.932;5.318;2022-08-05T10:45:39;6.20;;;2.28;;
18391;SDS011;9322;50.932;5.318;2022-08-05T10:50:57;5.18;;;2.15;;
18391;SDS011;9322;50.932;5.318;2022-08-05T10:56:03;24.60;;;3.90;;
18391;SDS011;9322;50.932;5.318;2022-08-05T10:58:33;8.18;;;2.08;;
18391;SDS011;9322;50.932;5.318;2022-08-05T11:01:04;11.93;;;2.00;;
18391;SDS011;9322;50.932;5.318;2022-08-05T11:03:30;5.78;;;1.83;;
18391;SDS011;9322;50.932;5.318;2022-08-05T11:08:36;6.75;;;2.17;;
18391;SDS011;9322;50.932;5.318;2022-08-05T11:14:01;5.40;;;1.58;;
18391;SDS011;9322;50.932;5.318;2022-08-05T11:16:28;5.90;;;2.00;;
18391;SDS011;9322;50.932;5.318;2022-08-05T11:21:55;4.38;;;1.85;;
18391;SDS011;9322;50.932;5.318;2022-08-05T11:24:44;8.02;;;2.50;;
18391;SDS011;9322;50.932;5.318;2022-08-05T11:27:42;9.30;;;2.28;;
18391;SDS011;9322;50.932;5.318;2022-08-05T11:30:01;8.75;;;2.30;;
18391;SDS011;9322;50.932;5.318;2022-08-05T11:32:28;16.95;;;2.80;;
18391;SDS011;9322;50.932;5.318;2022-08-05T11:34:54;8.57;;;2.10;;
18391;SDS011;9322;50.932;5.318;2022-08-05T11:37:40;6.07;;;2.03;;
18391;SDS011;9322;50.932;5.318;2022-08-05T11:40:18;5.03;;;1.90;;
18391;SDS011;9322;50.932;5.318;2022-08-05T11:42:44;4.70;;;2.00;;
18391;SDS011;9322;50.932;5.318;2022-08-05T11:45:11;3.20;;;1.98;;
18391;SDS011;9322;50.932;5.318;2022-08-05T11:47:37;5.63;;;1.80;;
18391;SDS011;9322;50.932;5.318;2022-08-05T11:50:03;15.32;;;1.52;;
18391;SDS011;9322;50.932;5.318;2022-08-05T11:52:29;6.35;;;1.70;;
18391;SDS011;9322;50.932;5.318;2022-08-05T11:54:55;3.92;;;1.40;;
18391;SDS011;9322;50.932;5.318;2022-08-05T11:57:26;3.78;;;1.52;;
18391;SDS011;9322;50.932;5.318;2022-08-05T11:59:55;4.70;;;1.15;;
18391;SDS011;9322;50.932;5.318;2022-08-05T12:02:28;1.92;;;1.20;;
18391;SDS011;9322;50.932;5.318;2022-08-05T12:04:59;3.55;;;1.40;;
18391;SDS011;9322;50.932;5.318;2022-08-05T12:07:27;5.63;;;1.40;;
18391;SDS011;9322;50.932;5.318;2022-08-05T12:09:58;2.65;;;1.13;;
18391;SDS011;9322;50.932;5.318;2022-08-05T12:12:27;4.57;;;1.20;;
18391;SDS011;9322;50.932;5.318;2022-08-05T12:14:55;1.85;;;1.10;;
18391;SDS011;9322;50.932;5.318;2022-08-05T12:17:21;5.03;;;1.30;;
18391;SDS011;9322;50.932;5.318;2022-08-05T12:19:53;4.50;;;1.40;;
18391;SDS011;9322;50.932;5.318;2022-08-05T12:24:56;11.68;;;1.98;;
18391;SDS011;9322;50.932;5.318;2022-08-05T12:27:28;5.50;;;1.60;;
18391;SDS011;9322;50.932;5.318;2022-08-05T12:30:03;9.70;;;1.48;;
18391;SDS011;9322;50.932;5.318;2022-08-05T12:32:31;7.72;;;1.35;;
18391;SDS011;9322;50.932;5.318;2022-08-05T12:34:59;5.45;;;1.27;;
18391;SDS011;9322;50.932;5.318;2022-08-05T12:37:27;6.28;;;1.42;;
18391;SDS011;9322;50.932;5.318;2022-08-05T12:39:54;3.10;;;1.20;;
18391;SDS011;9322;50.932;5.318;2022-08-05T12:42:21;4.60;;;1.40;;
18391;SDS011;9322;50.932;5.318;2022-08-05T12:44:47;3.15;;;1.30;;
18391;SDS011;9322;50.932;5.318;2022-08-05T12:47:34;2.42;;;1.10;;
18391;SDS011;9322;50.932;5.318;2022-08-05T12:50:00;8.38;;;1.60;;
18391;SDS011;9322;50.932;5.318;2022-08-05T12:52:36;2.88;;;1.20;;
18391;SDS011;9322;50.932;5.318;2022-08-05T12:55:14;14.38;;;1.55;;
18391;SDS011;9322;50.932;5.318;2022-08-05T12:57:42;5.75;;;1.20;;
18391;SDS011;9322;50.932;5.318;2022-08-05T13:00:18;2.30;;;1.02;;
18391;SDS011;9322;50.932;5.318;2022-08-05T13:02:45;8.02;;;1.20;;
18391;SDS011;9322;50.932;5.318;2022-08-05T13:05:11;5.05;;;1.38;;
18391;SDS011;9322;50.932;5.318;2022-08-05T13:07:37;2.80;;;1.10;;
18391;SDS011;9322;50.932;5.318;2022-08-05T13:10:04;3.38;;;1.00;;
18391;SDS011;9322;50.932;5.318;2022-08-05T13:12:38;4.78;;;1.20;;
18391;SDS011;9322;50.932;5.318;2022-08-05T13:15:05;2.85;;;1.33;;
18391;SDS011;9322;50.932;5.318;2022-08-05T13:17:34;3.35;;;1.02;;
18391;SDS011;9322;50.932;5.318;2022-08-05T13:22:37;3.20;;;1.00;;
18391;SDS011;9322;50.932;5.318;2022-08-05T13:25:04;3.67;;;1.33;;
18391;SDS011;9322;50.932;5.318;2022-08-05T13:27:36;28.65;;;3.30;;
18391;SDS011;9322;50.932;5.318;2022-08-05T13:30:04;28.92;;;4.50;;
18391;SDS011;9322;50.932;5.318;2022-08-05T13:32:32;7.00;;;1.35;;
18391;SDS011;9322;50.932;5.318;2022-08-05T13:34:57;7.85;;;1.17;;
18391;SDS011;9322;50.932;5.318;2022-08-05T13:37:23;12.32;;;1.45;;
18391;SDS011;9322;50.932;5.318;2022-08-05T13:39:49;3.85;;;1.10;;
18391;SDS011;9322;50.932;5.318;2022-08-05T13:42:19;7.38;;;0.98;;
18391;SDS011;9322;50.932;5.318;2022-08-05T13:44:46;3.95;;;1.00;;
18391;SDS011;9322;50.932;5.318;2022-08-05T13:47:12;5.68;;;1.00;;
18391;SDS011;9322;50.932;5.318;2022-08-05T13:49:38;6.40;;;1.48;;
18391;SDS011;9322;50.932;5.318;2022-08-05T13:52:11;4.43;;;1.00;;
18391;SDS011;9322;50.932;5.318;2022-08-05T13:54:38;3.92;;;0.90;;
18391;SDS011;9322;50.932;5.318;2022-08-05T13:57:04;5.25;;;1.08;;
18391;SDS011;9322;50.932;5.318;2022-08-05T13:59:30;3.20;;;1.15;;
18391;SDS011;9322;50.932;5.318;2022-08-05T14:01:56;3.10;;;1.05;;
18391;SDS011;9322;50.932;5.318;2022-08-05T14:04:23;2.95;;;0.88;;
18391;SDS011;9322;50.932;5.318;2022-08-05T14:07:07;4.25;;;1.13;;
18391;SDS011;9322;50.932;5.318;2022-08-05T14:09:34;11.00;;;1.30;;
18391;SDS011;9322;50.932;5.318;2022-08-05T14:11:59;4.90;;;1.40;;
18391;SDS011;9322;50.932;5.318;2022-08-05T14:14:25;6.25;;;1.20;;
18391;SDS011;9322;50.932;5.318;2022-08-05T14:16:51;14.35;;;2.00;;
18391;SDS011;9322;50.932;5.318;2022-08-05T14:19:17;9.63;;;1.65;;
18391;SDS011;9322;50.932;5.318;2022-08-05T14:21:42;23.63;;;2.50;;
18391;SDS011;9322;50.932;5.318;2022-08-05T14:24:08;3.25;;;1.08;;
18391;SDS011;9322;50.932;5.318;2022-08-05T14:26:36;38.78;;;3.95;;
18391;SDS011;9322;50.932;5.318;2022-08-05T14:29:03;6.88;;;1.17;;
18391;SDS011;9322;50.932;5.318;2022-08-05T14:31:31;11.30;;;1.35;;
18391;SDS011;9322;50.932;5.318;2022-08-05T14:33:57;7.85;;;1.15;;
18391;SDS011;9322;50.932;5.318;2022-08-05T14:36:23;5.13;;;0.70;;
18391;SDS011;9322;50.932;5.318;2022-08-05T14:38:49;6.60;;;1.10;;
18391;SDS011;9322;50.932;5.318;2022-08-05T14:41:15;13.45;;;1.98;;
18391;SDS011;9322;50.932;5.318;2022-08-05T14:43:41;11.77;;;1.58;;
18391;SDS011;9322;50.932;5.318;2022-08-05T14:46:07;7.65;;;1.25;;
18391;SDS011;9322;50.932;5.318;2022-08-05T14:48:32;1.48;;;0.70;;
18391;SDS011;9322;50.932;5.318;2022-08-05T14:50:58;4.68;;;1.00;;
18391;SDS011;9322;50.932;5.318;2022-08-05T14:53:23;3.58;;;0.77;;
18391;SDS011;9322;50.932;5.318;2022-08-05T14:55:49;9.40;;;0.95;;
18391;SDS011;9322;50.932;5.318;2022-08-05T14:58:15;3.63;;;0.80;;
18391;SDS011;9322;50.932;5.318;2022-08-05T15:00:40;12.98;;;1.13;;
18391;SDS011;9322;50.932;5.318;2022-08-05T15:03:06;2.53;;;0.80;;
18391;SDS011;9322;50.932;5.318;2022-08-05T15:05:32;1.92;;;0.80;;
18391;SDS011;9322;50.932;5.318;2022-08-05T15:07:59;5.72;;;0.90;;
18391;SDS011;9322;50.932;5.318;2022-08-05T15:10:25;4.28;;;0.90;;
18391;SDS011;9322;50.932;5.318;2022-08-05T15:12:51;7.72;;;1.00;;
18391;SDS011;9322;50.932;5.318;2022-08-05T15:15:16;6.05;;;0.98;;
18391;SDS011;9322;50.932;5.318;2022-08-05T15:17:42;2.65;;;0.63;;
18391;SDS011;9322;50.932;5.318;2022-08-05T15:20:08;3.17;;;0.70;;
18391;SDS011;9322;50.932;5.318;2022-08-05T15:22:35;2.88;;;0.80;;
18391;SDS011;9322;50.932;5.318;2022-08-05T15:25:01;3.00;;;0.80;;
18391;SDS011;9322;50.932;5.318;2022-08-05T15:27:26;3.17;;;0.93;;
18391;SDS011;9322;50.932;5.318;2022-08-05T15:29:52;14.73;;;2.22;;
18391;SDS011;9322;50.932;5.318;2022-08-05T15:32:18;6.65;;;1.02;;
18391;SDS011;9322;50.932;5.318;2022-08-05T15:34:44;21.45;;;2.33;;
18391;SDS011;9322;50.932;5.318;2022-08-05T15:37:09;8.85;;;1.25;;
18391;SDS011;9322;50.932;5.318;2022-08-05T15:39:35;5.15;;;0.85;;
18391;SDS011;9322;50.932;5.318;2022-08-05T15:42:01;5.20;;;0.95;;